sensor_id;sensor_type;location;lat;lon;timestamp;pressure;altitude;pressure_sealevel;temperature;humidity
57248;BME280;55809;46.618;10.764;2023-02-04T00:00:20;93478.94;;;7.31;63.32
57248;BME280;55809;46.618;10.764;2023-02-04T00:02:47;93472.69;;;7.23;64.47
57248;BME280;55809;46.618;10.764;2023-02-04T00:05:17;93475.28;;;7.16;64.89
57248;BME280;55809;46.618;10.764;2023-02-04T00:07:45;93485.56;;;7.11;64.73
57248;BME280;55809;46.618;10.764;2023-02-04T00:10:13;93485.16;;;7.09;64.76
57248;BME280;55809;46.618;10.764;2023-02-04T00:12:40;93485.88;;;7.05;64.79
57248;BME280;55809;46.618;10.764;2023-02-04T00:15:07;93454.25;;;6.92;64.21
57248;BME280;55809;46.618;10.764;2023-02-04T00:17:35;93481.75;;;7.12;64.36
57248;BME280;55809;46.618;10.764;2023-02-04T00:20:02;93477.81;;;7.05;64.49
57248;BME280;55809;46.618;10.764;2023-02-04T00:22:30;93474.88;;;7.14;63.27
57248;BME280;55809;46.618;10.764;2023-02-04T00:24:58;93458.09;;;7.21;62.28
57248;BME280;55809;46.618;10.764;2023-02-04T00:27:25;93486.97;;;7.27;61.29
57248;BME280;55809;46.618;10.764;2023-02-04T00:29:52;93469.03;;;7.35;61.93
57248;BME280;55809;46.618;10.764;2023-02-04T00:32:19;93470.16;;;7.34;61.89
57248;BME280;55809;46.618;10.764;2023-02-04T00:34:46;93478.19;;;7.31;62.51
57248;BME280;55809;46.618;10.764;2023-02-04T00:37:13;93485.03;;;7.28;62.56
57248;BME280;55809;46.618;10.764;2023-02-04T00:39:41;93486.59;;;7.29;62.47
57248;BME280;55809;46.618;10.764;2023-02-04T00:42:10;93493.06;;;7.24;62.94
57248;BME280;55809;46.618;10.764;2023-02-04T00:44:37;93477.25;;;7.19;62.54
57248;BME280;55809;46.618;10.764;2023-02-04T00:47:03;93506.09;;;7.26;62.36
57248;BME280;55809;46.618;10.764;2023-02-04T00:49:30;93497.69;;;7.27;62.33
57248;BME280;55809;46.618;10.764;2023-02-04T00:51:59;93481.63;;;7.31;61.36
57248;BME280;55809;46.618;10.764;2023-02-04T00:54:26;93468.56;;;7.29;61.61
57248;BME280;55809;46.618;10.764;2023-02-04T00:56:54;93463.66;;;7.35;60.78
57248;BME280;55809;46.618;10.764;2023-02-04T00:59:21;93421.94;;;7.11;60.82
57248;BME280;55809;46.618;10.764;2023-02-04T01:01:49;93428.88;;;7.16;61.36
57248;BME280;55809;46.618;10.764;2023-02-04T01:04:18;93462.78;;;7.27;62.52
57248;BME280;55809;46.618;10.764;2023-02-04T01:06:45;93460.41;;;7.22;62.49
57248;BME280;55809;46.618;10.764;2023-02-04T01:09:12;93458.63;;;7.03;62.80
57248;BME280;55809;46.618;10.764;2023-02-04T01:11:41;93444.03;;;7.01;63.54
57248;BME280;55809;46.618;10.764;2023-02-04T01:14:09;93462.16;;;7.08;64.65
57248;BME280;55809;46.618;10.764;2023-02-04T01:16:36;93471.00;;;7.12;63.73
57248;BME280;55809;46.618;10.764;2023-02-04T01:19:05;93510.50;;;7.11;63.30
57248;BME280;55809;46.618;10.764;2023-02-04T01:21:32;93516.22;;;7.10;63.77
57248;BME280;55809;46.618;10.764;2023-02-04T01:23:59;93504.25;;;7.03;64.62
57248;BME280;55809;46.618;10.764;2023-02-04T01:26:27;93506.88;;;7.00;64.45
57248;BME280;55809;46.618;10.764;2023-02-04T01:28:54;93513.72;;;6.97;64.76
57248;BME280;55809;46.618;10.764;2023-02-04T01:31:22;93515.53;;;6.90;65.54
57248;BME280;55809;46.618;10.764;2023-02-04T01:33:49;93505.91;;;6.85;65.89
57248;BME280;55809;46.618;10.764;2023-02-04T01:36:18;93529.94;;;6.78;65.75
57248;BME280;55809;46.618;10.764;2023-02-04T01:38:47;93514.97;;;6.77;65.78
57248;BME280;55809;46.618;10.764;2023-02-04T01:41:14;93495.47;;;6.57;66.13
57248;BME280;55809;46.618;10.764;2023-02-04T01:43:41;93525.28;;;6.75;65.33
57248;BME280;55809;46.618;10.764;2023-02-04T01:46:09;93526.50;;;6.81;65.46
57248;BME280;55809;46.618;10.764;2023-02-04T01:48:39;93525.03;;;6.84;65.00
57248;BME280;55809;46.618;10.764;2023-02-04T01:51:10;93499.63;;;6.77;64.47
57248;BME280;55809;46.618;10.764;2023-02-04T01:53:38;93526.22;;;6.86;64.48
57248;BME280;55809;46.618;10.764;2023-02-04T01:56:14;93542.31;;;6.86;64.51
57248;BME280;55809;46.618;10.764;2023-02-04T01:58:44;93541.19;;;6.87;64.37
57248;BME280;55809;46.618;10.764;2023-02-04T02:01:14;93551.16;;;6.87;64.69
57248;BME280;55809;46.618;10.764;2023-02-04T02:03:43;93553.78;;;6.83;64.18
57248;BME280;55809;46.618;10.764;2023-02-04T02:06:10;93558.44;;;6.86;64.38
57248;BME280;55809;46.618;10.764;2023-02-04T02:08:37;93557.72;;;6.89;64.25
57248;BME280;55809;46.618;10.764;2023-02-04T02:11:04;93555.03;;;6.89;63.97
57248;BME280;55809;46.618;10.764;2023-02-04T02:13:31;93556.56;;;6.90;63.82
57248;BME280;55809;46.618;10.764;2023-02-04T02:15:58;93538.28;;;6.73;64.35
57248;BME280;55809;46.618;10.764;2023-02-04T02:18:27;93549.13;;;6.80;64.48
57248;BME280;55809;46.618;10.764;2023-02-04T02:20:57;93563.38;;;6.84;64.32
57248;BME280;55809;46.618;10.764;2023-02-04T02:23:41;93572.97;;;6.85;64.12
57248;BME280;55809;46.618;10.764;2023-02-04T02:26:10;93566.00;;;6.80;64.85
57248;BME280;55809;46.618;10.764;2023-02-04T02:28:38;93567.50;;;6.78;64.80
57248;BME280;55809;46.618;10.764;2023-02-04T02:31:05;93548.59;;;6.71;64.56
57248;BME280;55809;46.618;10.764;2023-02-04T02:33:32;93552.56;;;6.80;64.44
57248;BME280;55809;46.618;10.764;2023-02-04T02:36:00;93551.41;;;6.78;64.50
57248;BME280;55809;46.618;10.764;2023-02-04T02:38:29;93567.84;;;6.76;65.22
57248;BME280;55809;46.618;10.764;2023-02-04T02:41:00;93565.94;;;6.77;65.34
57248;BME280;55809;46.618;10.764;2023-02-04T02:43:27;93573.22;;;6.76;65.08
57248;BME280;55809;46.618;10.764;2023-02-04T02:45:56;93570.97;;;6.78;64.92
57248;BME280;55809;46.618;10.764;2023-02-04T02:48:24;93530.41;;;6.61;64.51
57248;BME280;55809;46.618;10.764;2023-02-04T02:50:51;93567.19;;;6.83;64.47
57248;BME280;55809;46.618;10.764;2023-02-04T02:53:19;93566.38;;;6.79;64.73
57248;BME280;55809;46.618;10.764;2023-02-04T02:55:47;93552.53;;;6.77;64.61
57248;BME280;55809;46.618;10.764;2023-02-04T02:58:22;93547.97;;;6.81;64.73
57248;BME280;55809;46.618;10.764;2023-02-04T03:00:50;93541.44;;;6.78;64.86
57248;BME280;55809;46.618;10.764;2023-02-04T03:03:20;93533.41;;;6.78;64.74
57248;BME280;55809;46.618;10.764;2023-02-04T03:05:51;93537.66;;;6.83;64.61
57248;BME280;55809;46.618;10.764;2023-02-04T03:08:21;93543.00;;;6.79;64.76
57248;BME280;55809;46.618;10.764;2023-02-04T03:10:49;93554.09;;;6.78;65.00
57248;BME280;55809;46.618;10.764;2023-02-04T03:13:18;93556.78;;;6.78;65.04
57248;BME280;55809;46.618;10.764;2023-02-04T03:15:46;93559.38;;;6.74;65.19
57248;BME280;55809;46.618;10.764;2023-02-04T03:18:16;93541.03;;;6.76;64.87
57248;BME280;55809;46.618;10.764;2023-02-04T03:20:45;93543.28;;;6.74;64.61
57248;BME280;55809;46.618;10.764;2023-02-04T03:23:14;93550.25;;;6.79;64.49
57248;BME280;55809;46.618;10.764;2023-02-04T03:25:42;93546.81;;;6.78;64.41
57248;BME280;55809;46.618;10.764;2023-02-04T03:28:09;93541.06;;;6.80;63.63
57248;BME280;55809;46.618;10.764;2023-02-04T03:30:37;93551.88;;;6.84;63.60
57248;BME280;55809;46.618;10.764;2023-02-04T03:33:04;93555.03;;;6.89;63.27
57248;BME280;55809;46.618;10.764;2023-02-04T03:35:31;93560.44;;;6.93;62.60
57248;BME280;55809;46.618;10.764;2023-02-04T03:37:58;93564.00;;;7.00;62.07
57248;BME280;55809;46.618;10.764;2023-02-04T03:40:26;93554.53;;;7.07;61.08
57248;BME280;55809;46.618;10.764;2023-02-04T03:42:54;93553.81;;;7.10;60.89
57248;BME280;55809;46.618;10.764;2023-02-04T03:45:21;93553.84;;;7.13;60.35
57248;BME280;55809;46.618;10.764;2023-02-04T03:47:49;93550.09;;;7.18;60.44
57248;BME280;55809;46.618;10.764;2023-02-04T03:50:16;93547.81;;;7.20;59.74
57248;BME280;55809;46.618;10.764;2023-02-04T03:52:43;93559.69;;;7.19;59.68
57248;BME280;55809;46.618;10.764;2023-02-04T03:55:10;93554.81;;;7.24;59.62
57248;BME280;55809;46.618;10.764;2023-02-04T03:57:37;93535.44;;;7.12;59.33
57248;BME280;55809;46.618;10.764;2023-02-04T04:00:06;93538.69;;;7.24;59.62
57248;BME280;55809;46.618;10.764;2023-02-04T04:02:33;93529.06;;;7.23;59.33
57248;BME280;55809;46.618;10.764;2023-02-04T04:05:01;93533.66;;;7.23;58.89
57248;BME280;55809;46.618;10.764;2023-02-04T04:07:28;93532.66;;;7.31;58.66
57248;BME280;55809;46.618;10.764;2023-02-04T04:09:55;93537.25;;;7.31;58.55
57248;BME280;55809;46.618;10.764;2023-02-04T04:12:22;93532.22;;;7.29;59.04
57248;BME280;55809;46.618;10.764;2023-02-04T04:14:50;93530.31;;;7.29;58.75
57248;BME280;55809;46.618;10.764;2023-02-04T04:17:17;93537.97;;;7.27;59.25
57248;BME280;55809;46.618;10.764;2023-02-04T04:19:45;93527.97;;;7.24;59.32
57248;BME280;55809;46.618;10.764;2023-02-04T04:22:16;93528.00;;;7.28;58.17
57248;BME280;55809;46.618;10.764;2023-02-04T04:24:43;93523.03;;;7.30;58.15
57248;BME280;55809;46.618;10.764;2023-02-04T04:27:09;93509.28;;;7.35;57.83
57248;BME280;55809;46.618;10.764;2023-02-04T04:29:36;93507.81;;;7.38;57.49
57248;BME280;55809;46.618;10.764;2023-02-04T04:32:04;93518.94;;;7.40;56.94
57248;BME280;55809;46.618;10.764;2023-02-04T04:34:32;93508.31;;;7.47;56.52
57248;BME280;55809;46.618;10.764;2023-02-04T04:36:58;93499.06;;;7.44;56.37
57248;BME280;55809;46.618;10.764;2023-02-04T04:39:27;93499.88;;;7.48;56.29
57248;BME280;55809;46.618;10.764;2023-02-04T04:41:54;93507.97;;;7.52;56.19
57248;BME280;55809;46.618;10.764;2023-02-04T04:44:22;93499.16;;;7.51;55.56
57248;BME280;55809;46.618;10.764;2023-02-04T04:46:49;93489.19;;;7.52;56.18
57248;BME280;55809;46.618;10.764;2023-02-04T04:49:15;93499.84;;;7.45;57.15
57248;BME280;55809;46.618;10.764;2023-02-04T04:51:42;93488.25;;;7.37;57.68
57248;BME280;55809;46.618;10.764;2023-02-04T04:54:09;93492.72;;;7.29;57.80
57248;BME280;55809;46.618;10.764;2023-02-04T04:56:37;93487.00;;;7.31;57.41
57248;BME280;55809;46.618;10.764;2023-02-04T04:59:04;93484.38;;;7.35;57.80
57248;BME280;55809;46.618;10.764;2023-02-04T05:01:32;93498.00;;;7.22;58.98
57248;BME280;55809;46.618;10.764;2023-02-04T05:03:58;93483.25;;;7.09;59.93
57248;BME280;55809;46.618;10.764;2023-02-04T05:06:26;93470.13;;;7.04;60.12
57248;BME280;55809;46.618;10.764;2023-02-04T05:08:53;93445.31;;;6.84;60.69
57248;BME280;55809;46.618;10.764;2023-02-04T05:11:20;93452.75;;;6.94;60.65
57248;BME280;55809;46.618;10.764;2023-02-04T05:13:49;93434.38;;;6.96;59.46
57248;BME280;55809;46.618;10.764;2023-02-04T05:16:16;93429.00;;;6.96;58.60
57248;BME280;55809;46.618;10.764;2023-02-04T05:18:43;93409.81;;;6.94;60.00
57248;BME280;55809;46.618;10.764;2023-02-04T05:21:10;93424.00;;;6.95;58.23
57248;BME280;55809;46.618;10.764;2023-02-04T05:23:37;93391.16;;;7.05;55.97
57248;BME280;55809;46.618;10.764;2023-02-04T05:26:04;93386.00;;;7.23;54.84
57248;BME280;55809;46.618;10.764;2023-02-04T05:28:32;93379.69;;;7.38;54.31
57248;BME280;55809;46.618;10.764;2023-02-04T05:31:00;93395.59;;;7.54;52.17
57248;BME280;55809;46.618;10.764;2023-02-04T05:33:27;93398.88;;;7.74;51.82
57248;BME280;55809;46.618;10.764;2023-02-04T05:35:55;93362.75;;;7.71;51.81
57248;BME280;55809;46.618;10.764;2023-02-04T05:38:24;93383.53;;;7.78;50.54
57248;BME280;55809;46.618;10.764;2023-02-04T05:40:50;93360.91;;;7.79;50.04
57248;BME280;55809;46.618;10.764;2023-02-04T05:43:17;93359.19;;;8.01;49.53
57248;BME280;55809;46.618;10.764;2023-02-04T05:45:44;93370.34;;;8.03;50.34
57248;BME280;55809;46.618;10.764;2023-02-04T05:48:12;93358.78;;;7.99;49.69
57248;BME280;55809;46.618;10.764;2023-02-04T05:50:40;93350.28;;;7.93;49.95
57248;BME280;55809;46.618;10.764;2023-02-04T05:53:07;93331.50;;;7.97;47.32
57248;BME280;55809;46.618;10.764;2023-02-04T05:55:34;93351.63;;;8.17;47.43
57248;BME280;55809;46.618;10.764;2023-02-04T05:58:01;93359.44;;;8.33;46.12
57248;BME280;55809;46.618;10.764;2023-02-04T06:00:28;93367.19;;;8.38;46.26
57248;BME280;55809;46.618;10.764;2023-02-04T06:02:55;93347.91;;;8.33;48.46
57248;BME280;55809;46.618;10.764;2023-02-04T06:05:24;93354.44;;;8.32;45.63
57248;BME280;55809;46.618;10.764;2023-02-04T06:07:51;93354.59;;;8.50;44.38
57248;BME280;55809;46.618;10.764;2023-02-04T06:10:18;93350.00;;;8.50;45.15
57248;BME280;55809;46.618;10.764;2023-02-04T06:12:45;93354.63;;;8.53;46.66
57248;BME280;55809;46.618;10.764;2023-02-04T06:15:12;93358.13;;;8.61;44.38
57248;BME280;55809;46.618;10.764;2023-02-04T06:17:39;93328.94;;;8.66;43.46
57248;BME280;55809;46.618;10.764;2023-02-04T06:20:07;93349.38;;;8.78;42.76
57248;BME280;55809;46.618;10.764;2023-02-04T06:22:36;93351.69;;;8.80;42.98
57248;BME280;55809;46.618;10.764;2023-02-04T06:25:03;93359.38;;;8.81;43.44
57248;BME280;55809;46.618;10.764;2023-02-04T06:27:30;93370.97;;;8.85;42.96
57248;BME280;55809;46.618;10.764;2023-02-04T06:29:57;93305.41;;;8.49;42.41
57248;BME280;55809;46.618;10.764;2023-02-04T06:32:24;93344.88;;;8.97;42.36
57248;BME280;55809;46.618;10.764;2023-02-04T06:34:51;93356.41;;;8.97;42.97
57248;BME280;55809;46.618;10.764;2023-02-04T06:37:18;93367.19;;;9.01;42.29
57248;BME280;55809;46.618;10.764;2023-02-04T06:39:47;93325.28;;;9.00;42.27
57248;BME280;55809;46.618;10.764;2023-02-04T06:42:14;93360.66;;;9.02;42.82
57248;BME280;55809;46.618;10.764;2023-02-04T06:44:41;93364.47;;;8.97;42.71
57248;BME280;55809;46.618;10.764;2023-02-04T06:47:08;93365.22;;;8.94;43.33
57248;BME280;55809;46.618;10.764;2023-02-04T07:07:31;93375.00;;;9.27;42.29
57248;BME280;55809;46.618;10.764;2023-02-04T07:09:59;93373.44;;;9.23;42.42
57248;BME280;55809;46.618;10.764;2023-02-04T07:12:26;93352.66;;;9.20;42.24
57248;BME280;55809;46.618;10.764;2023-02-04T07:14:53;93336.09;;;9.21;42.01
57248;BME280;55809;46.618;10.764;2023-02-04T07:17:19;93358.06;;;9.27;41.82
57248;BME280;55809;46.618;10.764;2023-02-04T07:19:46;93337.69;;;9.26;41.85
57248;BME280;55809;46.618;10.764;2023-02-04T07:22:17;93350.75;;;9.24;41.28
57248;BME280;55809;46.618;10.764;2023-02-04T07:24:46;93338.44;;;9.19;41.89
57248;BME280;55809;46.618;10.764;2023-02-04T07:27:14;93343.47;;;9.31;40.94
57248;BME280;55809;46.618;10.764;2023-02-04T07:29:42;93366.59;;;9.39;41.02
57248;BME280;55809;46.618;10.764;2023-02-04T07:32:10;93354.63;;;9.33;41.42
57248;BME280;55809;46.618;10.764;2023-02-04T07:34:39;93349.63;;;9.32;41.23
57248;BME280;55809;46.618;10.764;2023-02-04T07:37:06;93370.06;;;9.47;40.45
57248;BME280;55809;46.618;10.764;2023-02-04T07:39:33;93343.91;;;9.48;40.14
57248;BME280;55809;46.618;10.764;2023-02-04T07:42:01;93345.06;;;9.54;39.68
57248;BME280;55809;46.618;10.764;2023-02-04T07:44:28;93339.69;;;9.54;39.90
57248;BME280;55809;46.618;10.764;2023-02-04T07:46:57;93331.22;;;9.59;39.69
57248;BME280;55809;46.618;10.764;2023-02-04T07:49:26;93311.59;;;9.62;39.47
57248;BME280;55809;46.618;10.764;2023-02-04T07:51:54;93338.16;;;9.67;38.64
57248;BME280;55809;46.618;10.764;2023-02-04T07:54:22;93364.00;;;9.75;39.21
57248;BME280;55809;46.618;10.764;2023-02-04T07:56:49;93374.81;;;9.90;38.85
57248;BME280;55809;46.618;10.764;2023-02-04T07:59:17;93347.84;;;9.86;39.02
57248;BME280;55809;46.618;10.764;2023-02-04T08:01:44;93356.69;;;9.79;39.60
57248;BME280;55809;46.618;10.764;2023-02-04T08:04:13;93332.06;;;10.09;37.57
57248;BME280;55809;46.618;10.764;2023-02-04T08:06:41;93351.34;;;10.01;38.22
57248;BME280;55809;46.618;10.764;2023-02-04T08:09:10;93340.56;;;10.33;36.94
57248;BME280;55809;46.618;10.764;2023-02-04T08:11:40;93337.84;;;10.65;36.65
57248;BME280;55809;46.618;10.764;2023-02-04T08:14:08;93329.31;;;10.88;35.18
57248;BME280;55809;46.618;10.764;2023-02-04T08:16:37;93375.97;;;10.99;35.08
57248;BME280;55809;46.618;10.764;2023-02-04T08:19:04;93352.03;;;11.01;35.44
57248;BME280;55809;46.618;10.764;2023-02-04T08:21:35;93333.09;;;11.12;35.28
57248;BME280;55809;46.618;10.764;2023-02-04T08:24:04;93335.78;;;11.09;34.82
57248;BME280;55809;46.618;10.764;2023-02-04T08:26:32;93329.63;;;11.08;35.31
57248;BME280;55809;46.618;10.764;2023-02-04T08:28:59;93326.91;;;11.19;34.69
57248;BME280;55809;46.618;10.764;2023-02-04T08:31:26;93311.84;;;11.18;33.32
57248;BME280;55809;46.618;10.764;2023-02-04T08:33:55;93327.06;;;11.64;32.51
57248;BME280;55809;46.618;10.764;2023-02-04T08:36:21;93321.31;;;11.58;31.31
57248;BME280;55809;46.618;10.764;2023-02-04T08:38:48;93333.53;;;11.88;31.12
57248;BME280;55809;46.618;10.764;2023-02-04T08:41:15;93308.81;;;11.86;31.84
57248;BME280;55809;46.618;10.764;2023-02-04T08:43:42;93329.22;;;11.94;32.03
57248;BME280;55809;46.618;10.764;2023-02-04T08:46:09;93327.63;;;12.04;32.22
57248;BME280;55809;46.618;10.764;2023-02-04T08:48:36;93338.78;;;12.09;31.40
57248;BME280;55809;46.618;10.764;2023-02-04T08:51:05;93331.13;;;12.01;31.60
57248;BME280;55809;46.618;10.764;2023-02-04T08:53:32;93313.28;;;12.07;29.52
57248;BME280;55809;46.618;10.764;2023-02-04T08:55:59;93314.78;;;12.15;30.75
57248;BME280;55809;46.618;10.764;2023-02-04T08:58:27;93317.53;;;12.11;32.17
57248;BME280;55809;46.618;10.764;2023-02-04T09:00:54;93312.84;;;12.15;30.58
57248;BME280;55809;46.618;10.764;2023-02-04T09:03:21;93328.19;;;12.33;29.97
57248;BME280;55809;46.618;10.764;2023-02-04T09:05:48;93322.97;;;12.53;30.02
57248;BME280;55809;46.618;10.764;2023-02-04T09:08:17;93331.09;;;12.53;28.39
57248;BME280;55809;46.618;10.764;2023-02-04T09:10:43;93323.66;;;12.64;29.00
57248;BME280;55809;46.618;10.764;2023-02-04T09:13:12;93322.19;;;12.56;30.07
57248;BME280;55809;46.618;10.764;2023-02-04T09:15:40;93306.47;;;12.40;30.61
57248;BME280;55809;46.618;10.764;2023-02-04T09:18:07;93294.66;;;12.19;31.17
57248;BME280;55809;46.618;10.764;2023-02-04T09:20:42;93308.09;;;12.30;31.12
57248;BME280;55809;46.618;10.764;2023-02-04T09:23:10;93308.72;;;12.49;30.63
57248;BME280;55809;46.618;10.764;2023-02-04T09:25:42;93330.81;;;12.40;29.65
57248;BME280;55809;46.618;10.764;2023-02-04T09:28:11;93328.84;;;12.48;28.34
57248;BME280;55809;46.618;10.764;2023-02-04T09:30:41;93324.88;;;12.56;28.60
57248;BME280;55809;46.618;10.764;2023-02-04T09:33:10;93306.56;;;12.71;28.61
57248;BME280;55809;46.618;10.764;2023-02-04T09:35:49;93311.03;;;12.47;28.37
57248;BME280;55809;46.618;10.764;2023-02-04T09:38:17;93322.97;;;12.53;27.73
57248;BME280;55809;46.618;10.764;2023-02-04T09:40:52;93337.25;;;12.60;28.10
57248;BME280;55809;46.618;10.764;2023-02-04T09:43:23;93352.97;;;12.73;27.73
57248;BME280;55809;46.618;10.764;2023-02-04T09:45:52;93331.13;;;12.49;27.56
57248;BME280;55809;46.618;10.764;2023-02-04T09:48:21;93338.34;;;12.63;26.55
57248;BME280;55809;46.618;10.764;2023-02-04T09:50:48;93350.78;;;12.60;27.00
57248;BME280;55809;46.618;10.764;2023-02-04T09:53:19;93357.97;;;12.29;28.61
57248;BME280;55809;46.618;10.764;2023-02-04T09:55:50;93360.97;;;12.42;27.02
57248;BME280;55809;46.618;10.764;2023-02-04T09:58:19;93362.09;;;12.48;28.49
57248;BME280;55809;46.618;10.764;2023-02-04T10:00:51;93374.53;;;12.38;27.83
57248;BME280;55809;46.618;10.764;2023-02-04T10:03:22;93340.19;;;12.32;28.35
57248;BME280;55809;46.618;10.764;2023-02-04T10:05:49;93369.94;;;12.32;28.53
57248;BME280;55809;46.618;10.764;2023-02-04T10:08:18;93397.81;;;12.29;28.67
57248;BME280;55809;46.618;10.764;2023-02-04T10:10:47;93389.03;;;12.10;29.53
57248;BME280;55809;46.618;10.764;2023-02-04T10:13:38;93385.56;;;12.10;28.57
57248;BME280;55809;46.618;10.764;2023-02-04T10:16:13;93410.28;;;12.15;28.80
57248;BME280;55809;46.618;10.764;2023-02-04T10:18:42;93393.72;;;12.03;28.00
57248;BME280;55809;46.618;10.764;2023-02-04T10:21:16;93390.16;;;12.16;28.65
57248;BME280;55809;46.618;10.764;2023-02-04T10:23:46;93372.88;;;12.00;27.56
57248;BME280;55809;46.618;10.764;2023-02-04T10:26:14;93417.66;;;12.11;28.18
57248;BME280;55809;46.618;10.764;2023-02-04T10:28:43;93395.94;;;12.18;27.71
57248;BME280;55809;46.618;10.764;2023-02-04T10:31:32;93410.59;;;12.25;27.48
57248;BME280;55809;46.618;10.764;2023-02-04T10:34:10;93413.75;;;12.12;27.52
57248;BME280;55809;46.618;10.764;2023-02-04T10:36:38;93431.94;;;12.12;27.63
57248;BME280;55809;46.618;10.764;2023-02-04T10:39:10;93416.81;;;12.22;27.90
57248;BME280;55809;46.618;10.764;2023-02-04T10:41:43;93420.38;;;12.08;28.07
57248;BME280;55809;46.618;10.764;2023-02-04T10:44:13;93389.06;;;12.07;27.79
57248;BME280;55809;46.618;10.764;2023-02-04T10:46:41;93430.50;;;11.93;28.28
57248;BME280;55809;46.618;10.764;2023-02-04T10:49:19;93420.38;;;12.04;28.18
57248;BME280;55809;46.618;10.764;2023-02-04T10:51:47;93423.81;;;12.15;27.48
57248;BME280;55809;46.618;10.764;2023-02-04T10:54:17;93422.66;;;12.13;28.05
57248;BME280;55809;46.618;10.764;2023-02-04T10:57:11;93406.16;;;11.93;27.73
57248;BME280;55809;46.618;10.764;2023-02-04T10:59:42;93438.53;;;12.07;27.30
57248;BME280;55809;46.618;10.764;2023-02-04T11:05:10;93422.94;;;12.29;27.18
57248;BME280;55809;46.618;10.764;2023-02-04T11:07:37;93436.91;;;12.24;27.10
57248;BME280;55809;46.618;10.764;2023-02-04T11:10:04;93427.19;;;12.30;27.25
57248;BME280;55809;46.618;10.764;2023-02-04T11:12:37;93437.50;;;12.46;26.62
57248;BME280;55809;46.618;10.764;2023-02-04T11:15:37;93424.41;;;12.44;26.86
57248;BME280;55809;46.618;10.764;2023-02-04T11:18:06;93435.34;;;12.23;26.58
57248;BME280;55809;46.618;10.764;2023-02-04T11:20:35;93441.47;;;12.34;26.89
57248;BME280;55809;46.618;10.764;2023-02-04T11:23:28;93427.84;;;12.49;26.22
57248;BME280;55809;46.618;10.764;2023-02-04T11:26:12;93412.78;;;12.44;26.31
57248;BME280;55809;46.618;10.764;2023-02-04T11:28:47;93433.44;;;12.16;26.83
57248;BME280;55809;46.618;10.764;2023-02-04T11:31:44;93429.22;;;12.15;25.64
57248;BME280;55809;46.618;10.764;2023-02-04T11:34:27;93438.03;;;12.27;26.32
57248;BME280;55809;46.618;10.764;2023-02-04T11:37:13;93427.09;;;12.44;26.05
57248;BME280;55809;46.618;10.764;2023-02-04T11:39:42;93402.00;;;12.37;25.62
57248;BME280;55809;46.618;10.764;2023-02-04T11:42:22;93434.13;;;12.35;25.59
57248;BME280;55809;46.618;10.764;2023-02-04T11:44:58;93431.38;;;12.38;26.55
57248;BME280;55809;46.618;10.764;2023-02-04T11:47:34;93426.84;;;12.25;25.78
57248;BME280;55809;46.618;10.764;2023-02-04T11:50:10;93424.56;;;12.16;26.19
57248;BME280;55809;46.618;10.764;2023-02-04T11:52:41;93414.97;;;12.08;25.55
57248;BME280;55809;46.618;10.764;2023-02-04T11:55:10;93423.88;;;11.97;25.80
57248;BME280;55809;46.618;10.764;2023-02-04T11:57:40;93422.00;;;11.87;26.35
57248;BME280;55809;46.618;10.764;2023-02-04T12:00:13;93420.50;;;11.79;27.25
57248;BME280;55809;46.618;10.764;2023-02-04T12:02:46;93417.72;;;11.97;26.35
57248;BME280;55809;46.618;10.764;2023-02-04T12:05:16;93438.63;;;11.86;27.01
57248;BME280;55809;46.618;10.764;2023-02-04T12:07:46;93425.13;;;11.79;25.85
57248;BME280;55809;46.618;10.764;2023-02-04T12:10:23;93417.00;;;11.82;26.80
57248;BME280;55809;46.618;10.764;2023-02-04T12:12:53;93421.22;;;11.83;26.45
57248;BME280;55809;46.618;10.764;2023-02-04T12:15:23;93418.13;;;11.81;26.06
57248;BME280;55809;46.618;10.764;2023-02-04T12:18:05;93432.44;;;11.89;25.70
57248;BME280;55809;46.618;10.764;2023-02-04T12:20:34;93438.53;;;12.04;25.32
57248;BME280;55809;46.618;10.764;2023-02-04T12:23:04;93444.41;;;11.95;25.54
57248;BME280;55809;46.618;10.764;2023-02-04T12:25:34;93420.53;;;11.68;26.16
57248;BME280;55809;46.618;10.764;2023-02-04T12:28:03;93444.41;;;11.81;25.46
57248;BME280;55809;46.618;10.764;2023-02-04T12:30:30;93438.63;;;11.89;25.51
57248;BME280;55809;46.618;10.764;2023-02-04T12:32:58;93444.03;;;11.82;26.06
57248;BME280;55809;46.618;10.764;2023-02-04T12:35:26;93438.66;;;11.79;25.81
57248;BME280;55809;46.618;10.764;2023-02-04T12:37:53;93427.47;;;11.69;25.99
57248;BME280;55809;46.618;10.764;2023-02-04T12:40:20;93441.03;;;11.59;25.31
57248;BME280;55809;46.618;10.764;2023-02-04T12:42:49;93417.06;;;11.71;25.66
57248;BME280;55809;46.618;10.764;2023-02-04T12:45:17;93416.63;;;11.77;25.70
57248;BME280;55809;46.618;10.764;2023-02-04T12:47:45;93436.03;;;11.54;26.19
57248;BME280;55809;46.618;10.764;2023-02-04T12:50:15;93454.19;;;11.49;25.51
57248;BME280;55809;46.618;10.764;2023-02-04T12:52:52;93452.63;;;11.59;25.92
57248;BME280;55809;46.618;10.764;2023-02-04T12:55:21;93461.91;;;11.55;25.60
57248;BME280;55809;46.618;10.764;2023-02-04T12:57:50;93444.56;;;11.48;25.92
57248;BME280;55809;46.618;10.764;2023-02-04T13:00:19;93460.41;;;11.39;25.70
57248;BME280;55809;46.618;10.764;2023-02-04T13:02:47;93459.63;;;11.46;25.39
57248;BME280;55809;46.618;10.764;2023-02-04T13:05:15;93455.78;;;11.40;26.03
57248;BME280;55809;46.618;10.764;2023-02-04T13:07:43;93453.06;;;11.36;26.11
57248;BME280;55809;46.618;10.764;2023-02-04T13:10:13;93412.25;;;10.95;26.13
57248;BME280;55809;46.618;10.764;2023-02-04T13:12:40;93466.22;;;11.23;26.14
57248;BME280;55809;46.618;10.764;2023-02-04T13:15:09;93473.16;;;11.21;26.54
57248;BME280;55809;46.618;10.764;2023-02-04T13:17:37;93486.31;;;11.19;26.49
57248;BME280;55809;46.618;10.764;2023-02-04T13:20:06;93472.81;;;11.08;26.85
57248;BME280;55809;46.618;10.764;2023-02-04T13:22:34;93480.16;;;11.00;27.22
57248;BME280;55809;46.618;10.764;2023-02-04T13:25:01;93475.13;;;10.92;27.68